createdAt,value
2023-04-08T00:00:54.838Z,15.5929
2023-04-08T00:01:56.486Z,15.6474
2023-04-08T00:02:58.228Z,15.6854
2023-04-08T00:04:00.122Z,15.7111
2023-04-08T00:05:01.500Z,15.6844
2023-04-08T00:06:03.209Z,15.6137
2023-04-08T00:07:04.749Z,15.5901
2023-04-08T00:08:06.476Z,15.4939
2023-04-08T00:09:08.084Z,15.4923
2023-04-08T00:10:09.628Z,15.4594
2023-04-08T00:11:11.457Z,15.5005
2023-04-08T00:12:13.071Z,15.5102
2023-04-08T00:13:14.731Z,15.5379
2023-04-08T00:14:16.363Z,15.5252
2023-04-08T00:15:17.986Z,15.4687
2023-04-08T00:16:19.689Z,15.4941
2023-04-08T00:17:21.267Z,15.4902
2023-04-08T00:18:22.918Z,15.4806
2023-04-08T00:19:24.595Z,15.4789
2023-04-08T00:20:26.394Z,15.4695
2023-04-08T00:21:27.803Z,15.4824
2023-04-08T00:22:29.602Z,15.4917
2023-04-08T00:23:31.194Z,15.5276
2023-04-08T00:24:33.305Z,15.4666
2023-04-08T00:25:37.150Z,15.4407
2023-04-08T00:26:36.140Z,15.4440
2023-04-08T00:27:37.872Z,15.5202
2023-04-08T00:28:39.514Z,15.5346
2023-04-08T00:29:41.156Z,15.5096
2023-04-08T00:30:42.766Z,15.5272
2023-04-08T00:31:44.475Z,15.5046
2023-04-08T00:32:46.013Z,15.5229
2023-04-08T00:33:47.751Z,15.4845
2023-04-08T00:34:49.423Z,15.4015
2023-04-08T00:35:51.172Z,15.3877
2023-04-08T00:36:52.727Z,15.5792
2023-04-08T00:37:54.332Z,15.8057
2023-04-08T00:38:55.994Z,15.9210
2023-04-08T00:39:57.666Z,15.8470
2023-04-08T00:40:59.214Z,15.7012
2023-04-08T00:42:00.923Z,15.6266
2023-04-08T00:43:02.705Z,15.5122
2023-04-08T00:44:04.274Z,15.6488
2023-04-08T00:45:05.973Z,15.7916
2023-04-08T00:46:07.586Z,15.8659
2023-04-08T00:47:09.304Z,15.8175
2023-04-08T00:48:10.868Z,15.6562
2023-04-08T00:49:12.515Z,15.5897
2023-04-08T00:50:14.217Z,15.4689
2023-04-08T00:51:15.838Z,15.5646
2023-04-08T00:52:17.507Z,15.7273
2023-04-08T00:53:20.129Z,15.8014
2023-04-08T00:54:21.577Z,15.7918
2023-04-08T00:55:22.445Z,15.6821
2023-04-08T00:56:24.066Z,15.6051
2023-04-08T00:57:25.688Z,15.5439
2023-04-08T00:58:27.369Z,15.5901
2023-04-08T00:59:29.038Z,15.7612
2023-04-08T01:00:31.266Z,15.8840
2023-04-08T01:01:33.197Z,15.8651
2023-04-08T01:02:34.815Z,15.7486
2023-04-08T01:03:35.788Z,15.6634
2023-04-08T01:04:37.347Z,15.5827
2023-04-08T01:05:39.040Z,15.6618
2023-04-08T01:06:40.832Z,15.7953
2023-04-08T01:07:42.424Z,15.8548
2023-04-08T01:08:43.999Z,15.8440
2023-04-08T01:09:45.743Z,15.7273
2023-04-08T01:10:47.347Z,15.6759
2023-04-08T01:11:48.953Z,15.5864
2023-04-08T01:12:50.693Z,15.6213
2023-04-08T01:13:52.343Z,15.7542
2023-04-08T01:14:53.889Z,15.8559
2023-04-08T01:15:55.683Z,15.8464
2023-04-08T01:16:57.214Z,15.7866
2023-04-08T01:17:58.912Z,15.7148
2023-04-08T01:19:00.586Z,15.6266
2023-04-08T01:20:02.255Z,15.6642
2023-04-08T01:21:03.860Z,15.7349
2023-04-08T01:22:05.417Z,15.7369
2023-04-08T01:23:07.078Z,15.6985
2023-04-08T01:24:08.693Z,15.6613
2023-04-08T01:25:11.187Z,15.6418
2023-04-08T01:26:12.081Z,15.6190
2023-04-08T01:27:13.720Z,15.5743
2023-04-08T01:28:15.494Z,15.5689
2023-04-08T01:29:17.010Z,15.5354
2023-04-08T01:30:18.721Z,15.4960
2023-04-08T01:31:20.341Z,15.4607
2023-04-08T01:32:21.987Z,15.4611
2023-04-08T01:33:23.731Z,15.4726
2023-04-08T01:34:25.412Z,15.4843
2023-04-08T01:35:27.095Z,15.4245
2023-04-08T01:36:28.694Z,15.4097
2023-04-08T01:37:30.362Z,15.4375
2023-04-08T01:38:32.012Z,15.4498
2023-04-08T01:39:33.689Z,15.4594
2023-04-08T01:40:35.374Z,15.5065
2023-04-08T01:41:37.038Z,15.4933
2023-04-08T01:42:38.634Z,15.3914
2023-04-08T01:43:40.261Z,15.3711
2023-04-08T01:44:42.101Z,15.4107
2023-04-08T01:45:43.704Z,15.5449
2023-04-08T01:46:45.404Z,15.6876
2023-04-08T01:47:46.967Z,15.7998
2023-04-08T01:48:48.868Z,15.7419
2023-04-08T01:49:50.319Z,15.6238
2023-04-08T01:50:52.730Z,15.5272
2023-04-08T01:51:53.657Z,15.4676
2023-04-08T01:52:55.181Z,15.6385
2023-04-08T01:53:56.896Z,15.7951
2023-04-08T01:54:58.588Z,15.8643
2023-04-08T01:56:00.210Z,15.7725
2023-04-08T01:57:01.768Z,15.6151
2023-04-08T01:58:03.460Z,15.5385
2023-04-08T01:59:05.132Z,15.4592
2023-04-08T02:00:06.819Z,15.5872
2023-04-08T02:01:08.449Z,15.7780
2023-04-08T02:02:10.141Z,15.8425
2023-04-08T02:03:11.885Z,15.7595
2023-04-08T02:04:13.440Z,15.6246
2023-04-08T02:05:15.009Z,15.5484
2023-04-08T02:06:16.798Z,15.5079
2023-04-08T02:07:18.330Z,15.6511
2023-04-08T02:08:20.029Z,15.7944
2023-04-08T02:09:21.650Z,15.8384
2023-04-08T02:10:23.354Z,15.7470
2023-04-08T02:11:24.973Z,15.6521
2023-04-08T02:12:26.584Z,15.6090
2023-04-08T02:13:28.259Z,15.6007
2023-04-08T02:14:29.881Z,15.7396
2023-04-08T02:15:31.632Z,15.8433
2023-04-08T02:16:33.305Z,15.8637
2023-04-08T02:17:35.819Z,15.7827
2023-04-08T02:18:36.545Z,15.6979
2023-04-08T02:19:38.196Z,15.5952
2023-04-08T02:20:40.606Z,15.6464
2023-04-08T02:21:41.582Z,15.8002
2023-04-08T02:22:43.209Z,15.8655
2023-04-08T02:23:44.868Z,15.8479
2023-04-08T02:24:46.460Z,15.7548
2023-04-08T02:25:48.136Z,15.6811
2023-04-08T02:26:49.794Z,15.5892
2023-04-08T02:27:51.443Z,15.6638
2023-04-08T02:28:53.210Z,15.7328
2023-04-08T02:29:54.784Z,15.8265
2023-04-08T02:30:56.412Z,15.7815
2023-04-08T02:31:58.167Z,15.6989
2023-04-08T02:32:59.796Z,15.5765
2023-04-08T02:34:01.368Z,15.5354
2023-04-08T02:35:03.008Z,15.6579
2023-04-08T02:36:04.721Z,15.7221
2023-04-08T02:37:07.179Z,15.7511
2023-04-08T02:38:07.979Z,15.7495
2023-04-08T02:39:09.725Z,15.6634
2023-04-08T02:40:11.336Z,15.4272
2023-04-08T02:41:12.961Z,15.3588
2023-04-08T02:42:14.681Z,15.4769
2023-04-08T02:43:16.291Z,15.7193
2023-04-08T02:44:17.926Z,15.8433
2023-04-08T02:45:19.583Z,15.8575
2023-04-08T02:46:21.333Z,15.7267
2023-04-08T02:47:22.951Z,15.5810
2023-04-08T02:48:24.537Z,15.4711
2023-04-08T02:49:26.222Z,15.5701
2023-04-08T02:50:27.858Z,15.7324
2023-04-08T02:51:29.537Z,15.8316
2023-04-08T02:52:31.208Z,15.7704
2023-04-08T02:53:32.898Z,15.6254
2023-04-08T02:54:35.304Z,15.5506
2023-04-08T02:55:36.223Z,15.9853
2023-04-08T02:56:37.922Z,16.4895
2023-04-08T02:57:39.565Z,16.9712
2023-04-08T02:58:41.157Z,17.5156
2023-04-08T02:59:42.765Z,17.7002
2023-04-08T03:00:44.511Z,17.7647
2023-04-08T03:01:46.148Z,17.7033
2023-04-08T03:02:48.083Z,17.6275
2023-04-08T03:03:49.580Z,17.5474
2023-04-08T03:04:51.098Z,17.5030
2023-04-08T03:05:52.774Z,17.4765
2023-04-08T03:06:54.382Z,17.4747
2023-04-08T03:07:56.368Z,17.4646
2023-04-08T03:08:57.711Z,17.4652
2023-04-08T03:09:59.333Z,17.4570
2023-04-08T03:11:01.010Z,17.4652
2023-04-08T03:12:02.585Z,17.5587
2023-04-08T03:13:04.321Z,17.6224
2023-04-08T03:14:05.970Z,17.6137
2023-04-08T03:15:07.686Z,17.5731
2023-04-08T03:16:09.255Z,17.5406
2023-04-08T03:17:10.998Z,17.5704
2023-04-08T03:18:12.631Z,17.6051
2023-04-08T03:19:14.189Z,17.6984
2023-04-08T03:20:15.861Z,17.6961
2023-04-08T03:21:17.592Z,17.6883
2023-04-08T03:22:19.157Z,17.6450
2023-04-08T03:23:20.886Z,17.6176
2023-04-08T03:24:22.505Z,17.7010
2023-04-08T03:25:24.053Z,17.6965
2023-04-08T03:26:25.806Z,17.7045
2023-04-08T03:27:27.458Z,17.7113
2023-04-08T03:28:29.140Z,17.7362
2023-04-08T03:29:30.865Z,17.7392
2023-04-08T03:30:32.476Z,17.6949
2023-04-08T03:31:34.125Z,17.6743
2023-04-08T03:32:35.815Z,17.7448
2023-04-08T03:33:37.475Z,17.8002
2023-04-08T03:34:39.093Z,17.8187
2023-04-08T03:35:40.814Z,17.8060
2023-04-08T03:36:42.381Z,17.7657
2023-04-08T03:37:44.080Z,17.7631
2023-04-08T03:38:45.674Z,17.7522
2023-04-08T03:39:47.320Z,17.7748
2023-04-08T03:40:48.951Z,17.8132
2023-04-08T03:41:50.615Z,17.8719
2023-04-08T03:42:52.315Z,17.8467
2023-04-08T03:43:53.930Z,17.8461
2023-04-08T03:44:55.582Z,17.8399
2023-04-08T03:45:57.241Z,17.7955
2023-04-08T03:46:58.906Z,17.7929
2023-04-08T03:48:00.626Z,17.8469
2023-04-08T03:49:03.121Z,17.8656
2023-04-08T03:50:03.861Z,17.8982
2023-04-08T03:51:05.489Z,17.9130
2023-04-08T03:52:07.228Z,17.8658
2023-04-08T03:53:08.820Z,17.8302
2023-04-08T03:54:11.455Z,17.8721
2023-04-08T03:55:12.099Z,17.9420
2023-04-08T03:56:13.758Z,17.9806
2023-04-08T03:57:15.416Z,18.0389
2023-04-08T03:58:17.068Z,18.0461
2023-04-08T03:59:19.612Z,18.0414
2023-04-08T04:00:20.397Z,17.9790
2023-04-08T04:01:22.049Z,17.8999
2023-04-08T04:02:23.954Z,17.8949
2023-04-08T04:03:25.417Z,17.9338
2023-04-08T04:04:28.248Z,17.9750
2023-04-08T04:05:28.712Z,17.9956
2023-04-08T04:06:30.296Z,18.0116
2023-04-08T04:07:31.960Z,17.9802
2023-04-08T04:08:33.607Z,17.9483
2023-04-08T04:09:35.317Z,17.8742
2023-04-08T04:10:36.917Z,17.8370
2023-04-08T04:11:38.574Z,17.8481
2023-04-08T04:12:40.318Z,17.9130
2023-04-08T04:13:41.953Z,17.9736
2023-04-08T04:14:43.664Z,17.9785
2023-04-08T04:15:45.251Z,17.9584
2023-04-08T04:16:46.833Z,17.9391
2023-04-08T04:17:49.216Z,17.9375
2023-04-08T04:18:51.067Z,17.9812
2023-04-08T04:19:51.943Z,18.0135
2023-04-08T04:20:53.610Z,18.0266
2023-04-08T04:21:55.253Z,17.9870
2023-04-08T04:22:56.862Z,17.9598
2023-04-08T04:23:58.492Z,17.9428
2023-04-08T04:25:00.129Z,17.9997
2023-04-08T04:26:01.886Z,18.0515
2023-04-08T04:27:03.525Z,18.0671
2023-04-08T04:28:05.208Z,18.0722
2023-04-08T04:29:06.789Z,18.0383
2023-04-08T04:30:08.497Z,17.9580
2023-04-08T04:31:10.143Z,17.9775
2023-04-08T04:32:11.746Z,18.0395
2023-04-08T04:33:13.405Z,18.1299
2023-04-08T04:34:15.054Z,18.1507
2023-04-08T04:35:16.807Z,18.1535
2023-04-08T04:36:18.379Z,18.1240
2023-04-08T04:37:20.054Z,18.0681
2023-04-08T04:38:21.697Z,18.0221
2023-04-08T04:39:23.329Z,18.0601
2023-04-08T04:40:25.105Z,18.1112
2023-04-08T04:41:26.643Z,18.1457
2023-04-08T04:42:28.287Z,18.1677
2023-04-08T04:43:29.939Z,18.1312
2023-04-08T04:44:31.613Z,18.1010
2023-04-08T04:45:33.193Z,18.0556
2023-04-08T04:46:34.967Z,18.0708
2023-04-08T04:47:36.598Z,18.0971
2023-04-08T04:48:38.234Z,18.0582
2023-04-08T04:49:39.923Z,18.0133
2023-04-08T04:50:42.016Z,17.9855
2023-04-08T04:51:43.205Z,17.9179
2023-04-08T04:52:44.900Z,17.7446
2023-04-08T04:53:46.588Z,17.7302
2023-04-08T04:54:48.172Z,17.8187
2023-04-08T04:55:49.834Z,17.8261
2023-04-08T04:56:51.482Z,17.8512
2023-04-08T04:57:53.174Z,17.8972
2023-04-08T04:58:54.793Z,17.9231
2023-04-08T04:59:56.485Z,17.9615
2023-04-08T05:00:58.114Z,17.9925
2023-04-08T05:01:59.819Z,17.9716
2023-04-08T05:03:01.501Z,17.9352
2023-04-08T05:04:03.091Z,17.8974
2023-04-08T05:05:04.743Z,17.9695
2023-04-08T05:06:06.894Z,17.9566
2023-04-08T05:07:08.001Z,17.8917
2023-04-08T05:08:09.729Z,17.8074
2023-04-08T05:09:11.424Z,17.7604
2023-04-08T05:10:12.895Z,17.7499
2023-04-08T05:11:14.691Z,17.7657
2023-04-08T05:12:16.401Z,17.7951
2023-04-08T05:13:17.945Z,17.8292
2023-04-08T05:14:19.694Z,17.8341
2023-04-08T05:15:21.385Z,17.8684
2023-04-08T05:16:22.990Z,17.8508
2023-04-08T05:17:24.840Z,17.8113
2023-04-08T05:18:26.276Z,17.7514
2023-04-08T05:19:27.919Z,17.7374
2023-04-08T05:20:29.419Z,17.7466
2023-04-08T05:21:31.270Z,17.7423
2023-04-08T05:22:32.736Z,17.7822
2023-04-08T05:23:34.553Z,17.8033
2023-04-08T05:24:36.122Z,17.7746
2023-04-08T05:25:37.819Z,17.7555
2023-04-08T05:26:39.565Z,17.6973
2023-04-08T05:27:41.148Z,17.6554
2023-04-08T05:28:42.749Z,17.6583
2023-04-08T05:29:44.554Z,17.6458
2023-04-08T05:30:46.118Z,17.6369
2023-04-08T05:31:47.813Z,17.6154
2023-04-08T05:32:49.474Z,17.5675
2023-04-08T05:33:51.057Z,17.5716
2023-04-08T05:34:52.660Z,17.6197
2023-04-08T05:35:54.483Z,17.6700
2023-04-08T05:36:56.113Z,17.7279
2023-04-08T05:37:57.703Z,17.7514
2023-04-08T05:39:00.402Z,17.7411
2023-04-08T05:40:01.016Z,17.6918
2023-04-08T05:41:02.687Z,17.6600
2023-04-08T05:42:04.376Z,17.6187
2023-04-08T05:43:06.385Z,17.6639
2023-04-08T05:44:07.738Z,17.8378
2023-04-08T05:45:09.279Z,18.0699
2023-04-08T05:46:10.933Z,18.2020
2023-04-08T05:47:12.675Z,18.1394
2023-04-08T05:48:14.368Z,18.0104
2023-04-08T05:49:15.997Z,17.9701
2023-04-08T05:50:17.596Z,18.1396
2023-04-08T05:51:19.176Z,18.3226
2023-04-08T05:52:21.976Z,18.4378
2023-04-08T05:53:22.825Z,18.3271
2023-04-08T05:54:24.168Z,18.1792
2023-04-08T05:55:25.912Z,18.1488
2023-04-08T05:56:27.601Z,18.2415
2023-04-08T05:57:29.179Z,18.4473
2023-04-08T05:58:30.851Z,18.5036
2023-04-08T05:59:32.683Z,18.4000
2023-04-08T06:00:34.082Z,18.2768
2023-04-08T06:01:35.816Z,18.2396
2023-04-08T06:02:38.481Z,18.3577
2023-04-08T06:03:39.141Z,18.5414
2023-04-08T06:04:40.780Z,18.5966
2023-04-08T06:05:42.360Z,18.4643
2023-04-08T06:06:43.975Z,18.3783
2023-04-08T06:07:45.677Z,18.4315
2023-04-08T06:08:47.397Z,18.6143
2023-04-08T06:09:49.035Z,18.7363
2023-04-08T06:10:50.626Z,18.7024
2023-04-08T06:11:52.324Z,18.5588
2023-04-08T06:12:54.011Z,18.4801
2023-04-08T06:13:55.700Z,18.5588
2023-04-08T06:14:57.281Z,18.7585
2023-04-08T06:15:58.944Z,18.8579
2023-04-08T06:17:00.667Z,18.7579
2023-04-08T06:18:02.345Z,18.5968
2023-04-08T06:19:03.807Z,18.5615
2023-04-08T06:20:05.519Z,18.7176
2023-04-08T06:21:07.165Z,18.8836
2023-04-08T06:22:08.792Z,18.9368
2023-04-08T06:23:10.471Z,18.8084
2023-04-08T06:24:12.391Z,18.6720
2023-04-08T06:25:13.819Z,18.6833
2023-04-08T06:26:16.337Z,18.8394
2023-04-08T06:27:17.069Z,19.0035
2023-04-08T06:28:18.743Z,18.9992
2023-04-08T06:29:20.366Z,18.8382
2023-04-08T06:30:22.009Z,18.7622
2023-04-08T06:31:23.695Z,18.8823
2023-04-08T06:32:25.292Z,19.0773
2023-04-08T06:33:27.098Z,19.1243
2023-04-08T06:34:28.658Z,18.9951
2023-04-08T06:35:31.861Z,18.8677
2023-04-08T06:36:32.189Z,18.8710
2023-04-08T06:37:33.578Z,19.0491
2023-04-08T06:38:35.323Z,19.2299
2023-04-08T06:39:36.891Z,19.2393
2023-04-08T06:40:38.521Z,19.0910
2023-04-08T06:41:40.135Z,18.9641
2023-04-08T06:42:41.728Z,18.9544
2023-04-08T06:43:43.468Z,19.1095
2023-04-08T06:44:45.159Z,19.2184
2023-04-08T06:45:46.708Z,19.2120
2023-04-08T06:46:48.414Z,19.0378
2023-04-08T06:47:50.081Z,18.9879
2023-04-08T06:48:51.941Z,19.0678
2023-04-08T06:49:53.386Z,19.3065
2023-04-08T06:50:54.978Z,19.4248
2023-04-08T06:51:56.724Z,19.3174
2023-04-08T06:52:58.348Z,19.1623
2023-04-08T06:53:59.984Z,19.1539
2023-04-08T06:55:01.960Z,19.2933
2023-04-08T06:56:03.217Z,19.4199
2023-04-08T06:57:05.820Z,19.4490
2023-04-08T06:58:06.499Z,19.3449
2023-04-08T06:59:08.268Z,19.2981
2023-04-08T07:00:09.949Z,19.3659
2023-04-08T07:01:12.236Z,19.5832
2023-04-08T07:02:13.152Z,19.7430
2023-04-08T07:03:14.864Z,19.7009
2023-04-08T07:04:16.571Z,19.5396
2023-04-08T07:05:18.126Z,19.4932
2023-04-08T07:06:19.737Z,19.5694
2023-04-08T07:07:21.433Z,19.8036
2023-04-08T07:08:23.045Z,19.9796
2023-04-08T07:09:24.752Z,19.8710
2023-04-08T07:10:26.423Z,19.6183
2023-04-08T07:11:28.033Z,19.5041
2023-04-08T07:12:30.254Z,19.5869
2023-04-08T07:13:31.331Z,19.7876
2023-04-08T07:14:33.073Z,19.8358
2023-04-08T07:15:34.608Z,19.6105
2023-04-08T07:16:36.225Z,19.4195
2023-04-08T07:17:38.875Z,19.4314
2023-04-08T07:18:39.596Z,19.6711
2023-04-08T07:19:41.514Z,19.9020
2023-04-08T07:20:42.790Z,19.9057
2023-04-08T07:21:44.498Z,19.6329
2023-04-08T07:22:46.104Z,19.4410
2023-04-08T07:23:48.294Z,19.5172
2023-04-08T07:24:49.462Z,19.7783
2023-04-08T07:25:51.066Z,19.9932
2023-04-08T07:26:52.725Z,19.9338
2023-04-08T07:27:55.256Z,19.6253
2023-04-08T07:28:56.018Z,19.4801
2023-04-08T07:29:57.790Z,19.5986
2023-04-08T07:30:59.322Z,19.8475
2023-04-08T07:32:00.938Z,20.0242
2023-04-08T07:33:02.673Z,19.8946
2023-04-08T07:34:04.281Z,19.5649
2023-04-08T07:35:06.262Z,19.4591
2023-04-08T07:36:07.568Z,19.6692
2023-04-08T07:37:09.191Z,19.9408
2023-04-08T07:38:11.830Z,20.1109
2023-04-08T07:39:12.461Z,19.9587
2023-04-08T07:40:14.311Z,19.6793
2023-04-08T07:41:15.830Z,19.5704
2023-04-08T07:42:17.421Z,19.7245
2023-04-08T07:43:19.099Z,19.9923
2023-04-08T07:44:20.736Z,20.1450
2023-04-08T07:45:22.419Z,19.9767
2023-04-08T07:46:24.132Z,19.6304
2023-04-08T07:47:25.805Z,19.5583
2023-04-08T07:48:27.360Z,19.7074
2023-04-08T07:49:29.013Z,19.9866
2023-04-08T07:50:30.902Z,20.1252
2023-04-08T07:51:32.467Z,19.9585
2023-04-08T07:52:34.022Z,19.6471
2023-04-08T07:53:35.726Z,19.6136
2023-04-08T07:54:37.352Z,19.8336
2023-04-08T07:55:39.136Z,20.0983
2023-04-08T07:56:40.710Z,20.2041
2023-04-08T07:57:42.384Z,19.9301
2023-04-08T07:58:44.091Z,19.6417
2023-04-08T07:59:45.628Z,19.6740
2023-04-08T08:00:47.467Z,19.9525
2023-04-08T08:01:49.251Z,20.2306
2023-04-08T08:02:50.577Z,20.2454
2023-04-08T08:03:53.021Z,19.9172
2023-04-08T08:04:53.910Z,19.6922
2023-04-08T08:05:55.918Z,19.8013
2023-04-08T08:06:57.231Z,20.0946
2023-04-08T08:07:58.917Z,20.3146
2023-04-08T08:09:01.272Z,20.2641
2023-04-08T08:10:02.104Z,19.8933
2023-04-08T08:11:03.882Z,19.7991
2023-04-08T08:12:05.396Z,19.9437
2023-04-08T08:13:07.057Z,20.2054
2023-04-08T08:14:08.714Z,20.3982
2023-04-08T08:15:10.537Z,20.2440
2023-04-08T08:16:12.371Z,19.9028
2023-04-08T08:17:13.657Z,19.8196
2023-04-08T08:18:15.398Z,20.0521
2023-04-08T08:19:17.018Z,20.3541
2023-04-08T08:20:18.725Z,20.4939
2023-04-08T08:21:20.312Z,20.2635
2023-04-08T08:22:21.926Z,19.9139
2023-04-08T08:23:23.585Z,19.8597
2023-04-08T08:24:25.242Z,20.0737
2023-04-08T08:25:26.982Z,20.3582
2023-04-08T08:26:28.612Z,20.4664
2023-04-08T08:27:30.282Z,20.2282
2023-04-08T08:28:31.924Z,19.9145
2023-04-08T08:29:33.587Z,19.8644
2023-04-08T08:30:35.202Z,20.0486
2023-04-08T08:31:36.971Z,20.3475
2023-04-08T08:32:38.530Z,20.4650
2023-04-08T08:33:40.106Z,20.2021
2023-04-08T08:34:41.807Z,19.9057
2023-04-08T08:35:43.421Z,19.8508
2023-04-08T08:36:45.079Z,20.0885
2023-04-08T08:37:46.708Z,20.3508
2023-04-08T08:38:48.325Z,20.4613
2023-04-08T08:39:50.196Z,20.1606
2023-04-08T08:40:51.696Z,19.8843
2023-04-08T08:41:53.319Z,19.9496
2023-04-08T08:42:54.955Z,20.2384
2023-04-08T08:43:56.641Z,20.5092
2023-04-08T08:44:58.291Z,20.5165
2023-04-08T08:45:59.934Z,20.2247
2023-04-08T08:47:02.564Z,19.9714
2023-04-08T08:48:03.285Z,20.0881
2023-04-08T08:49:04.874Z,20.4079
2023-04-08T08:50:06.609Z,20.6651
2023-04-08T08:51:08.163Z,20.6447
2023-04-08T08:52:09.888Z,20.3265
2023-04-08T08:53:12.672Z,20.1376
2023-04-08T08:54:13.185Z,20.2777
2023-04-08T08:55:32.510Z,20.5778
2023-04-08T08:56:18.352Z,20.8242
2023-04-08T08:57:18.032Z,20.6780
2023-04-08T08:58:19.711Z,20.2941
2023-04-08T08:59:21.912Z,20.1421
2023-04-08T09:00:23.004Z,20.3224
2023-04-08T09:01:25.360Z,20.6353
2023-04-08T09:02:26.424Z,20.8000
2023-04-08T09:03:28.396Z,20.5794
2023-04-08T09:04:29.641Z,20.1982
2023-04-08T09:05:31.306Z,20.0872
2023-04-08T09:06:32.925Z,20.3155
2023-04-08T09:07:34.547Z,20.6599
2023-04-08T09:08:36.207Z,20.7770
2023-04-08T09:09:38.486Z,20.4942
2023-04-08T09:10:39.606Z,20.1836
2023-04-08T09:11:41.199Z,20.1386
2023-04-08T09:12:42.921Z,20.3549
2023-04-08T09:13:44.447Z,20.6277
2023-04-08T09:14:46.102Z,20.7608
2023-04-08T09:15:47.744Z,20.5301
2023-04-08T09:16:49.525Z,20.2325
2023-04-08T09:17:51.517Z,20.2257
2023-04-08T09:18:52.798Z,20.5274
2023-04-08T09:19:54.411Z,20.8475
2023-04-08T09:20:56.094Z,21.0032
2023-04-08T09:21:58.056Z,20.7676
2023-04-08T09:22:59.354Z,20.4434
2023-04-08T09:24:00.974Z,20.3986
2023-04-08T09:25:02.637Z,20.6620
2023-04-08T09:26:04.334Z,21.0087
2023-04-08T09:27:06.009Z,21.1174
2023-04-08T09:28:07.631Z,20.7836
2023-04-08T09:29:24.360Z,20.2799
2023-04-08T09:30:10.908Z,20.1417
2023-04-08T09:31:12.648Z,20.2846
2023-04-08T09:32:14.185Z,20.5005
2023-04-08T09:33:15.949Z,20.6043
2023-04-08T09:34:17.475Z,20.3516
2023-04-08T09:35:19.194Z,19.9658
2023-04-08T09:36:20.833Z,19.8116
2023-04-08T09:37:22.474Z,19.9765
2023-04-08T09:38:24.202Z,20.2405
2023-04-08T09:39:25.805Z,20.4243
2023-04-08T09:40:27.545Z,20.2764
2023-04-08T09:41:29.153Z,19.9202
2023-04-08T09:42:30.745Z,19.7389
2023-04-08T09:43:33.031Z,19.8720
2023-04-08T09:44:34.189Z,20.2516
2023-04-08T09:45:35.773Z,20.5548
2023-04-08T09:46:37.328Z,20.5802
2023-04-08T09:47:39.052Z,20.2731
2023-04-08T09:48:40.728Z,20.0597
2023-04-08T09:49:42.373Z,20.1341
2023-04-08T09:50:44.081Z,20.4654
2023-04-08T09:51:45.656Z,20.7908
2023-04-08T09:52:47.319Z,20.8082
2023-04-08T09:53:49.184Z,20.4983
2023-04-08T09:54:50.605Z,20.2785
2023-04-08T09:55:52.266Z,20.3836
2023-04-08T09:56:53.960Z,20.6780
2023-04-08T09:57:55.602Z,20.9707
2023-04-08T09:58:57.499Z,20.9734
2023-04-08T09:59:58.925Z,20.7456
2023-04-08T10:01:00.564Z,20.6256
2023-04-08T10:02:02.269Z,20.6946
2023-04-08T10:03:03.932Z,20.9446
2023-04-08T10:04:05.570Z,21.0580
2023-04-08T10:05:08.405Z,20.8620
2023-04-08T10:06:08.804Z,20.6102
2023-04-08T10:07:10.398Z,20.5539
2023-04-08T10:08:12.022Z,20.8113
2023-04-08T10:09:14.527Z,21.0157
2023-04-08T10:10:15.366Z,21.0284
2023-04-08T10:11:16.981Z,20.7546
2023-04-08T10:12:18.718Z,20.5582
2023-04-08T10:13:20.319Z,20.5831
2023-04-08T10:14:21.986Z,20.8684
2023-04-08T10:15:23.556Z,21.0771
2023-04-08T10:16:25.275Z,21.0812
2023-04-08T10:17:27.771Z,20.7963
2023-04-08T10:18:28.534Z,20.6264
2023-04-08T10:19:30.211Z,20.7992
2023-04-08T10:20:31.840Z,21.1017
2023-04-08T10:21:33.635Z,21.3470
2023-04-08T10:22:35.162Z,21.2603
2023-04-08T10:23:36.797Z,20.9331
2023-04-08T10:24:38.435Z,20.7528
2023-04-08T10:25:40.093Z,20.9134
2023-04-08T10:26:41.786Z,21.2437
2023-04-08T10:27:43.400Z,21.4894
2023-04-08T10:28:45.050Z,21.3984
2023-04-08T10:29:47.104Z,21.1784
2023-04-08T10:30:49.101Z,21.0978
2023-04-08T10:31:49.917Z,21.3758
2023-04-08T10:32:51.590Z,21.7303
2023-04-08T10:33:53.177Z,21.8595
2023-04-08T10:34:54.862Z,21.5393
2023-04-08T10:35:56.510Z,21.1046
2023-04-08T10:36:58.835Z,20.9970
2023-04-08T10:37:59.889Z,21.1800
2023-04-08T10:39:01.616Z,21.3528
2023-04-08T10:40:03.188Z,21.2852
2023-04-08T10:41:04.782Z,20.9144
2023-04-08T10:42:06.460Z,20.6137
2023-04-08T10:43:08.129Z,20.5936
2023-04-08T10:44:09.849Z,20.8127
2023-04-08T10:45:11.466Z,21.0128
2023-04-08T10:46:13.128Z,20.9762
2023-04-08T10:47:14.725Z,20.6279
2023-04-08T10:48:16.404Z,20.3461
2023-04-08T10:49:18.013Z,20.4375
2023-04-08T10:50:19.750Z,20.7528
2023-04-08T10:51:21.403Z,20.9758
2023-04-08T10:52:23.035Z,20.8475
2023-04-08T10:53:24.754Z,20.4342
2023-04-08T10:54:26.361Z,20.2093
2023-04-08T10:55:28.841Z,20.2892
2023-04-08T10:56:29.591Z,20.5858
2023-04-08T10:57:31.274Z,20.8429
2023-04-08T10:58:32.920Z,20.7659
2023-04-08T10:59:34.710Z,20.4551
2023-04-08T11:00:36.264Z,20.3424
2023-04-08T11:01:38.019Z,20.5443
2023-04-08T11:02:39.703Z,20.8746
2023-04-08T11:03:41.410Z,21.0763
2023-04-08T11:04:42.924Z,20.9224
2023-04-08T11:05:44.555Z,20.6135
2023-04-08T11:06:46.607Z,20.4800
2023-04-08T11:07:47.876Z,20.6147
2023-04-08T11:08:49.418Z,20.8744
2023-04-08T11:09:51.171Z,20.9485
2023-04-08T11:10:52.884Z,20.7930
2023-04-08T11:11:54.411Z,20.6349
2023-04-08T11:12:56.120Z,20.6716
2023-04-08T11:13:58.504Z,20.8836
2023-04-08T11:14:59.353Z,21.0929
2023-04-08T11:16:02.156Z,21.0734
2023-04-08T11:17:02.656Z,20.9350
2023-04-08T11:18:04.414Z,20.8273
2023-04-08T11:19:05.970Z,20.9446
2023-04-08T11:20:07.599Z,21.1856
2023-04-08T11:21:09.213Z,21.3924
2023-04-08T11:22:11.374Z,21.3404
2023-04-08T11:23:12.410Z,21.1823
2023-04-08T11:24:14.146Z,21.0890
2023-04-08T11:25:15.728Z,21.2038
2023-04-08T11:26:17.468Z,21.4590
2023-04-08T11:27:19.079Z,21.6652
2023-04-08T11:28:20.660Z,21.6011
2023-04-08T11:29:22.369Z,21.4651
2023-04-08T11:30:24.006Z,21.3400
2023-04-08T11:31:25.743Z,21.4031
2023-04-08T11:32:27.313Z,21.6225
2023-04-08T11:33:28.981Z,21.8548
2023-04-08T11:34:30.588Z,21.8728
2023-04-08T11:35:32.318Z,21.7597
2023-04-08T11:36:33.962Z,21.6469
2023-04-08T11:37:35.630Z,21.5828
2023-04-08T11:38:37.255Z,21.6535
2023-04-08T11:39:38.830Z,21.8106
2023-04-08T11:40:41.844Z,22.0244
2023-04-08T11:41:42.296Z,21.9959
2023-04-08T11:42:46.027Z,21.8539
2023-04-08T11:43:45.531Z,21.7492
2023-04-08T11:44:47.123Z,21.7644
2023-04-08T11:45:48.734Z,21.8447
2023-04-08T11:46:50.647Z,22.0049
2023-04-08T11:47:52.105Z,22.1138
2023-04-08T11:48:53.705Z,22.0201
2023-04-08T11:49:55.434Z,21.8542
2023-04-08T11:50:57.040Z,21.7755
2023-04-08T11:51:58.740Z,21.8151
2023-04-08T11:53:00.401Z,21.9852
2023-04-08T11:54:02.366Z,22.1341
2023-04-08T11:55:03.662Z,22.1222
2023-04-08T11:56:05.312Z,22.0226
2023-04-08T11:57:07.018Z,21.9226
2023-04-08T11:58:09.397Z,21.8975
2023-04-08T11:59:10.150Z,21.9747
2023-04-08T12:00:11.920Z,22.1343
2023-04-08T12:01:13.471Z,22.2471
2023-04-08T12:02:15.286Z,22.2633
2023-04-08T12:03:16.898Z,22.1855
2023-04-08T12:04:18.652Z,22.1378
2023-04-08T12:05:20.113Z,22.1547
2023-04-08T12:06:21.728Z,22.2937
2023-04-08T12:07:23.481Z,22.4708
2023-04-08T12:08:25.076Z,22.6047
2023-04-08T12:09:26.681Z,22.6158
2023-04-08T12:10:28.331Z,22.4950
2023-04-08T12:11:29.945Z,22.3720
2023-04-08T12:12:31.701Z,22.2826
2023-04-08T12:13:33.290Z,22.2678
2023-04-08T12:14:34.914Z,22.2980
2023-04-08T12:15:37.513Z,22.2841
2023-04-08T12:16:38.427Z,22.2161
2023-04-08T12:17:40.055Z,22.0479
2023-04-08T12:18:41.639Z,21.8511
2023-04-08T12:19:43.250Z,21.7130
2023-04-08T12:20:44.888Z,21.6972
2023-04-08T12:21:46.657Z,21.7554
2023-04-08T12:22:48.347Z,21.7880
2023-04-08T12:23:50.114Z,21.6477
2023-04-08T12:24:51.493Z,21.4555
2023-04-08T12:25:53.124Z,21.3269